sensor_id;sensor_type;location;lat;lon;timestamp;P1;durP1;ratioP1;P2;durP2;ratioP2
21503;SDS011;10913;51.992;9.228;2023-12-29T00:00:45;5.63;;;1.60;;
21503;SDS011;10913;51.992;9.228;2023-12-29T00:03:10;5.05;;;1.83;;
21503;SDS011;10913;51.992;9.228;2023-12-29T00:05:35;3.25;;;1.50;;
21503;SDS011;10913;51.992;9.228;2023-12-29T00:08:01;3.22;;;1.50;;
21503;SDS011;10913;51.992;9.228;2023-12-29T00:10:26;5.03;;;1.50;;
21503;SDS011;10913;51.992;9.228;2023-12-29T00:12:52;5.20;;;1.40;;
21503;SDS011;10913;51.992;9.228;2023-12-29T00:15:17;5.57;;;1.90;;
21503;SDS011;10913;51.992;9.228;2023-12-29T00:17:43;5.85;;;1.65;;
21503;SDS011;10913;51.992;9.228;2023-12-29T00:20:09;4.07;;;1.60;;
21503;SDS011;10913;51.992;9.228;2023-12-29T00:22:35;8.32;;;1.65;;
21503;SDS011;10913;51.992;9.228;2023-12-29T00:25:00;4.57;;;1.65;;
21503;SDS011;10913;51.992;9.228;2023-12-29T00:27:25;5.40;;;1.73;;
21503;SDS011;10913;51.992;9.228;2023-12-29T00:29:51;4.72;;;1.67;;
21503;SDS011;10913;51.992;9.228;2023-12-29T00:32:16;6.82;;;1.80;;
21503;SDS011;10913;51.992;9.228;2023-12-29T00:34:42;3.88;;;1.70;;
21503;SDS011;10913;51.992;9.228;2023-12-29T00:37:07;3.90;;;1.60;;
21503;SDS011;10913;51.992;9.228;2023-12-29T00:39:33;4.07;;;1.70;;
21503;SDS011;10913;51.992;9.228;2023-12-29T00:42:03;2.63;;;1.42;;
21503;SDS011;10913;51.992;9.228;2023-12-29T00:44:32;7.75;;;1.65;;
21503;SDS011;10913;51.992;9.228;2023-12-29T00:46:58;4.30;;;1.60;;
21503;SDS011;10913;51.992;9.228;2023-12-29T00:49:24;4.88;;;1.75;;
21503;SDS011;10913;51.992;9.228;2023-12-29T00:51:49;6.43;;;1.90;;
21503;SDS011;10913;51.992;9.228;2023-12-29T00:54:15;7.97;;;1.80;;
21503;SDS011;10913;51.992;9.228;2023-12-29T00:56:40;5.28;;;1.50;;
21503;SDS011;10913;51.992;9.228;2023-12-29T00:59:06;4.03;;;1.67;;
21503;SDS011;10913;51.992;9.228;2023-12-29T01:01:35;5.20;;;1.67;;
21503;SDS011;10913;51.992;9.228;2023-12-29T01:04:01;6.35;;;1.70;;
21503;SDS011;10913;51.992;9.228;2023-12-29T01:06:27;3.60;;;1.50;;
21503;SDS011;10913;51.992;9.228;2023-12-29T01:08:52;6.45;;;1.80;;
21503;SDS011;10913;51.992;9.228;2023-12-29T01:11:18;5.07;;;1.83;;
21503;SDS011;10913;51.992;9.228;2023-12-29T01:13:43;7.07;;;1.98;;
21503;SDS011;10913;51.992;9.228;2023-12-29T01:16:08;6.47;;;1.63;;
21503;SDS011;10913;51.992;9.228;2023-12-29T01:18:34;7.50;;;1.88;;
21503;SDS011;10913;51.992;9.228;2023-12-29T01:20:59;4.13;;;1.58;;
21503;SDS011;10913;51.992;9.228;2023-12-29T01:23:24;3.47;;;1.50;;
21503;SDS011;10913;51.992;9.228;2023-12-29T01:25:49;4.25;;;1.55;;
21503;SDS011;10913;51.992;9.228;2023-12-29T01:28:15;4.32;;;1.73;;
21503;SDS011;10913;51.992;9.228;2023-12-29T01:30:40;5.45;;;1.92;;
21503;SDS011;10913;51.992;9.228;2023-12-29T01:33:05;5.25;;;1.60;;
21503;SDS011;10913;51.992;9.228;2023-12-29T01:35:31;6.35;;;1.63;;
21503;SDS011;10913;51.992;9.228;2023-12-29T01:37:56;3.65;;;1.60;;
21503;SDS011;10913;51.992;9.228;2023-12-29T01:40:22;4.78;;;1.50;;
21503;SDS011;10913;51.992;9.228;2023-12-29T01:42:47;6.05;;;1.70;;
21503;SDS011;10913;51.992;9.228;2023-12-29T01:45:20;2.53;;;1.60;;
21503;SDS011;10913;51.992;9.228;2023-12-29T01:47:47;4.75;;;1.30;;
21503;SDS011;10913;51.992;9.228;2023-12-29T01:50:14;5.13;;;1.40;;
21503;SDS011;10913;51.992;9.228;2023-12-29T01:52:40;3.55;;;1.10;;
21503;SDS011;10913;51.992;9.228;2023-12-29T01:55:09;4.72;;;1.40;;
21503;SDS011;10913;51.992;9.228;2023-12-29T01:57:37;3.72;;;1.50;;
21503;SDS011;10913;51.992;9.228;2023-12-29T02:00:04;3.42;;;1.25;;
21503;SDS011;10913;51.992;9.228;2023-12-29T02:02:31;5.03;;;1.30;;
21503;SDS011;10913;51.992;9.228;2023-12-29T02:04:56;6.43;;;1.60;;
21503;SDS011;10913;51.992;9.228;2023-12-29T02:07:23;5.43;;;1.48;;
21503;SDS011;10913;51.992;9.228;2023-12-29T02:09:48;6.55;;;1.55;;
21503;SDS011;10913;51.992;9.228;2023-12-29T02:12:15;5.88;;;1.50;;
21503;SDS011;10913;51.992;9.228;2023-12-29T02:14:41;5.18;;;1.30;;
21503;SDS011;10913;51.992;9.228;2023-12-29T02:19:44;3.63;;;1.50;;
21503;SDS011;10913;51.992;9.228;2023-12-29T02:22:11;4.05;;;1.40;;
21503;SDS011;10913;51.992;9.228;2023-12-29T02:24:38;5.88;;;1.60;;
21503;SDS011;10913;51.992;9.228;2023-12-29T02:29:38;3.15;;;1.50;;
21503;SDS011;10913;51.992;9.228;2023-12-29T02:32:05;4.63;;;1.50;;
21503;SDS011;10913;51.992;9.228;2023-12-29T02:34:32;3.20;;;1.35;;
21503;SDS011;10913;51.992;9.228;2023-12-29T02:36:58;3.58;;;1.45;;
21503;SDS011;10913;51.992;9.228;2023-12-29T02:39:25;4.55;;;1.52;;
21503;SDS011;10913;51.992;9.228;2023-12-29T02:41:50;6.75;;;1.42;;
21503;SDS011;10913;51.992;9.228;2023-12-29T02:44:15;3.88;;;1.25;;
21503;SDS011;10913;51.992;9.228;2023-12-29T02:46:41;5.10;;;1.30;;
21503;SDS011;10913;51.992;9.228;2023-12-29T02:49:06;3.53;;;1.23;;
21503;SDS011;10913;51.992;9.228;2023-12-29T02:51:36;4.65;;;1.27;;
21503;SDS011;10913;51.992;9.228;2023-12-29T02:54:01;3.45;;;1.10;;
21503;SDS011;10913;51.992;9.228;2023-12-29T02:56:27;4.30;;;1.23;;
21503;SDS011;10913;51.992;9.228;2023-12-29T02:58:52;3.50;;;1.27;;
21503;SDS011;10913;51.992;9.228;2023-12-29T03:01:18;5.72;;;1.23;;
21503;SDS011;10913;51.992;9.228;2023-12-29T03:03:43;3.17;;;1.23;;
21503;SDS011;10913;51.992;9.228;2023-12-29T03:06:08;3.28;;;1.10;;
21503;SDS011;10913;51.992;9.228;2023-12-29T03:08:34;2.97;;;1.10;;
21503;SDS011;10913;51.992;9.228;2023-12-29T03:10:59;2.47;;;1.15;;
21503;SDS011;10913;51.992;9.228;2023-12-29T03:13:25;3.55;;;1.20;;
21503;SDS011;10913;51.992;9.228;2023-12-29T03:15:50;2.85;;;1.05;;
21503;SDS011;10913;51.992;9.228;2023-12-29T03:18:15;3.50;;;1.33;;
21503;SDS011;10913;51.992;9.228;2023-12-29T03:20:41;4.57;;;1.13;;
21503;SDS011;10913;51.992;9.228;2023-12-29T03:23:06;3.10;;;1.20;;
21503;SDS011;10913;51.992;9.228;2023-12-29T03:25:32;6.80;;;1.40;;
21503;SDS011;10913;51.992;9.228;2023-12-29T03:27:57;2.42;;;1.20;;
21503;SDS011;10913;51.992;9.228;2023-12-29T03:30:23;4.85;;;1.40;;
21503;SDS011;10913;51.992;9.228;2023-12-29T03:32:49;3.72;;;1.38;;
21503;SDS011;10913;51.992;9.228;2023-12-29T03:35:14;3.75;;;1.20;;
21503;SDS011;10913;51.992;9.228;2023-12-29T03:37:41;2.97;;;1.30;;
21503;SDS011;10913;51.992;9.228;2023-12-29T03:40:07;3.25;;;1.48;;
21503;SDS011;10913;51.992;9.228;2023-12-29T03:42:33;6.80;;;1.42;;
21503;SDS011;10913;51.992;9.228;2023-12-29T03:44:58;5.35;;;1.35;;
21503;SDS011;10913;51.992;9.228;2023-12-29T03:47:23;5.20;;;1.60;;
21503;SDS011;10913;51.992;9.228;2023-12-29T03:49:49;4.47;;;1.40;;
21503;SDS011;10913;51.992;9.228;2023-12-29T03:52:14;4.35;;;1.45;;
21503;SDS011;10913;51.992;9.228;2023-12-29T03:54:39;3.92;;;1.42;;
21503;SDS011;10913;51.992;9.228;2023-12-29T03:57:05;3.17;;;1.33;;
21503;SDS011;10913;51.992;9.228;2023-12-29T03:59:30;3.47;;;1.33;;
21503;SDS011;10913;51.992;9.228;2023-12-29T04:01:55;3.45;;;1.10;;
21503;SDS011;10913;51.992;9.228;2023-12-29T04:04:21;3.55;;;1.25;;
21503;SDS011;10913;51.992;9.228;2023-12-29T04:06:46;3.92;;;1.30;;
21503;SDS011;10913;51.992;9.228;2023-12-29T04:09:11;3.83;;;1.38;;
21503;SDS011;10913;51.992;9.228;2023-12-29T04:11:37;4.38;;;1.40;;
21503;SDS011;10913;51.992;9.228;2023-12-29T04:14:02;3.92;;;1.30;;
21503;SDS011;10913;51.992;9.228;2023-12-29T04:16:27;3.88;;;1.45;;
21503;SDS011;10913;51.992;9.228;2023-12-29T04:18:53;4.85;;;1.40;;
21503;SDS011;10913;51.992;9.228;2023-12-29T04:21:18;4.15;;;1.40;;
21503;SDS011;10913;51.992;9.228;2023-12-29T04:23:44;3.28;;;1.15;;
21503;SDS011;10913;51.992;9.228;2023-12-29T04:26:09;2.63;;;1.40;;
21503;SDS011;10913;51.992;9.228;2023-12-29T04:28:34;4.80;;;1.30;;
21503;SDS011;10913;51.992;9.228;2023-12-29T04:31:00;5.63;;;1.40;;
21503;SDS011;10913;51.992;9.228;2023-12-29T04:33:25;5.32;;;1.55;;
21503;SDS011;10913;51.992;9.228;2023-12-29T04:35:51;5.78;;;1.50;;
21503;SDS011;10913;51.992;9.228;2023-12-29T04:38:16;4.35;;;1.75;;
21503;SDS011;10913;51.992;9.228;2023-12-29T04:40:44;3.83;;;1.33;;
21503;SDS011;10913;51.992;9.228;2023-12-29T04:43:09;4.88;;;1.80;;
21503;SDS011;10913;51.992;9.228;2023-12-29T04:45:35;3.55;;;1.58;;
21503;SDS011;10913;51.992;9.228;2023-12-29T04:48:00;5.35;;;1.80;;
21503;SDS011;10913;51.992;9.228;2023-12-29T04:50:25;6.25;;;1.65;;
21503;SDS011;10913;51.992;9.228;2023-12-29T04:52:51;4.22;;;1.70;;
21503;SDS011;10913;51.992;9.228;2023-12-29T04:55:16;4.43;;;1.63;;
21503;SDS011;10913;51.992;9.228;2023-12-29T04:57:41;5.68;;;1.80;;
21503;SDS011;10913;51.992;9.228;2023-12-29T05:00:07;7.10;;;1.98;;
21503;SDS011;10913;51.992;9.228;2023-12-29T05:02:33;3.92;;;1.73;;
21503;SDS011;10913;51.992;9.228;2023-12-29T05:04:59;4.45;;;1.65;;
21503;SDS011;10913;51.992;9.228;2023-12-29T05:07:24;3.58;;;1.60;;
21503;SDS011;10913;51.992;9.228;2023-12-29T05:09:49;4.88;;;1.77;;
21503;SDS011;10913;51.992;9.228;2023-12-29T05:12:15;4.88;;;1.50;;
21503;SDS011;10913;51.992;9.228;2023-12-29T05:14:40;3.63;;;1.70;;
21503;SDS011;10913;51.992;9.228;2023-12-29T05:17:06;6.47;;;1.70;;
21503;SDS011;10913;51.992;9.228;2023-12-29T05:19:33;5.38;;;1.60;;
21503;SDS011;10913;51.992;9.228;2023-12-29T05:21:58;4.22;;;2.10;;
21503;SDS011;10913;51.992;9.228;2023-12-29T05:24:24;5.32;;;1.85;;
21503;SDS011;10913;51.992;9.228;2023-12-29T05:26:49;4.22;;;1.83;;
21503;SDS011;10913;51.992;9.228;2023-12-29T05:29:14;5.00;;;1.67;;
21503;SDS011;10913;51.992;9.228;2023-12-29T05:31:40;3.72;;;1.63;;
21503;SDS011;10913;51.992;9.228;2023-12-29T05:34:06;5.10;;;2.00;;
21503;SDS011;10913;51.992;9.228;2023-12-29T05:36:34;4.28;;;1.70;;
21503;SDS011;10913;51.992;9.228;2023-12-29T05:39:02;3.30;;;1.80;;
21503;SDS011;10913;51.992;9.228;2023-12-29T05:41:28;3.20;;;1.45;;
21503;SDS011;10913;51.992;9.228;2023-12-29T05:43:54;5.35;;;1.85;;
21503;SDS011;10913;51.992;9.228;2023-12-29T05:46:19;6.55;;;1.95;;
21503;SDS011;10913;51.992;9.228;2023-12-29T05:48:46;4.97;;;1.67;;
21503;SDS011;10913;51.992;9.228;2023-12-29T05:51:12;5.05;;;1.60;;
21503;SDS011;10913;51.992;9.228;2023-12-29T05:53:41;3.28;;;1.73;;
21503;SDS011;10913;51.992;9.228;2023-12-29T05:56:07;6.47;;;1.85;;
21503;SDS011;10913;51.992;9.228;2023-12-29T05:58:33;5.25;;;1.83;;
21503;SDS011;10913;51.992;9.228;2023-12-29T06:00:58;4.78;;;1.77;;
21503;SDS011;10913;51.992;9.228;2023-12-29T06:03:25;5.13;;;1.83;;
21503;SDS011;10913;51.992;9.228;2023-12-29T06:05:51;4.03;;;1.77;;
21503;SDS011;10913;51.992;9.228;2023-12-29T06:08:16;6.20;;;1.55;;
21503;SDS011;10913;51.992;9.228;2023-12-29T06:10:41;7.25;;;2.15;;
21503;SDS011;10913;51.992;9.228;2023-12-29T06:13:07;4.18;;;1.50;;
21503;SDS011;10913;51.992;9.228;2023-12-29T06:15:32;5.60;;;1.73;;
21503;SDS011;10913;51.992;9.228;2023-12-29T06:17:58;3.22;;;1.65;;
21503;SDS011;10913;51.992;9.228;2023-12-29T06:20:23;3.30;;;1.52;;
21503;SDS011;10913;51.992;9.228;2023-12-29T06:22:49;3.88;;;1.67;;
21503;SDS011;10913;51.992;9.228;2023-12-29T06:25:14;7.57;;;2.10;;
21503;SDS011;10913;51.992;9.228;2023-12-29T06:27:40;4.68;;;1.88;;
21503;SDS011;10913;51.992;9.228;2023-12-29T06:30:06;5.20;;;1.90;;
21503;SDS011;10913;51.992;9.228;2023-12-29T06:32:32;5.75;;;1.80;;
21503;SDS011;10913;51.992;9.228;2023-12-29T06:34:57;5.00;;;1.88;;
21503;SDS011;10913;51.992;9.228;2023-12-29T06:37:23;4.72;;;1.70;;
21503;SDS011;10913;51.992;9.228;2023-12-29T06:39:48;6.15;;;1.80;;
21503;SDS011;10913;51.992;9.228;2023-12-29T06:42:14;4.97;;;1.60;;
21503;SDS011;10913;51.992;9.228;2023-12-29T06:44:39;4.70;;;1.73;;
21503;SDS011;10913;51.992;9.228;2023-12-29T06:47:04;5.47;;;1.65;;
21503;SDS011;10913;51.992;9.228;2023-12-29T06:49:31;6.75;;;1.90;;
21503;SDS011;10913;51.992;9.228;2023-12-29T06:51:57;6.68;;;1.90;;
21503;SDS011;10913;51.992;9.228;2023-12-29T06:54:23;5.80;;;1.70;;
21503;SDS011;10913;51.992;9.228;2023-12-29T06:56:48;4.72;;;1.58;;
21503;SDS011;10913;51.992;9.228;2023-12-29T06:59:14;6.30;;;1.60;;
21503;SDS011;10913;51.992;9.228;2023-12-29T07:01:39;6.38;;;1.88;;
21503;SDS011;10913;51.992;9.228;2023-12-29T07:04:07;7.90;;;1.60;;
21503;SDS011;10913;51.992;9.228;2023-12-29T07:06:35;7.05;;;1.77;;
21503;SDS011;10913;51.992;9.228;2023-12-29T07:09:01;7.93;;;1.70;;
21503;SDS011;10913;51.992;9.228;2023-12-29T07:11:27;5.03;;;1.98;;
21503;SDS011;10913;51.992;9.228;2023-12-29T07:13:53;5.93;;;1.67;;
21503;SDS011;10913;51.992;9.228;2023-12-29T07:16:18;5.90;;;1.65;;
21503;SDS011;10913;51.992;9.228;2023-12-29T07:18:45;6.97;;;1.92;;
21503;SDS011;10913;51.992;9.228;2023-12-29T07:21:11;7.40;;;1.80;;
21503;SDS011;10913;51.992;9.228;2023-12-29T07:23:37;9.30;;;1.83;;
21503;SDS011;10913;51.992;9.228;2023-12-29T07:26:03;6.75;;;1.80;;
21503;SDS011;10913;51.992;9.228;2023-12-29T07:28:28;6.82;;;2.10;;
21503;SDS011;10913;51.992;9.228;2023-12-29T07:30:54;6.13;;;1.80;;
21503;SDS011;10913;51.992;9.228;2023-12-29T07:33:19;5.82;;;1.70;;
21503;SDS011;10913;51.992;9.228;2023-12-29T07:35:44;5.47;;;1.50;;
21503;SDS011;10913;51.992;9.228;2023-12-29T07:38:10;7.90;;;1.83;;
21503;SDS011;10913;51.992;9.228;2023-12-29T07:40:35;7.30;;;1.98;;
21503;SDS011;10913;51.992;9.228;2023-12-29T07:43:01;4.13;;;1.25;;
21503;SDS011;10913;51.992;9.228;2023-12-29T07:45:26;5.75;;;1.83;;
21503;SDS011;10913;51.992;9.228;2023-12-29T07:47:51;7.28;;;1.95;;
21503;SDS011;10913;51.992;9.228;2023-12-29T07:50:17;6.38;;;1.90;;
21503;SDS011;10913;51.992;9.228;2023-12-29T07:52:43;6.18;;;1.73;;
21503;SDS011;10913;51.992;9.228;2023-12-29T07:55:09;6.30;;;1.90;;
21503;SDS011;10913;51.992;9.228;2023-12-29T07:57:34;11.68;;;2.08;;
21503;SDS011;10913;51.992;9.228;2023-12-29T08:00:00;5.00;;;1.40;;
21503;SDS011;10913;51.992;9.228;2023-12-29T08:02:26;4.65;;;1.58;;
21503;SDS011;10913;51.992;9.228;2023-12-29T08:04:52;8.57;;;2.08;;
21503;SDS011;10913;51.992;9.228;2023-12-29T08:07:19;5.40;;;1.60;;
21503;SDS011;10913;51.992;9.228;2023-12-29T08:09:44;6.22;;;2.03;;
21503;SDS011;10913;51.992;9.228;2023-12-29T08:12:10;6.05;;;1.75;;
21503;SDS011;10913;51.992;9.228;2023-12-29T08:14:36;8.45;;;1.70;;
21503;SDS011;10913;51.992;9.228;2023-12-29T08:17:01;5.80;;;1.70;;
21503;SDS011;10913;51.992;9.228;2023-12-29T08:19:26;5.15;;;1.67;;
21503;SDS011;10913;51.992;9.228;2023-12-29T08:21:52;6.95;;;1.75;;
21503;SDS011;10913;51.992;9.228;2023-12-29T08:24:17;5.35;;;1.70;;
21503;SDS011;10913;51.992;9.228;2023-12-29T08:26:45;6.93;;;1.83;;
21503;SDS011;10913;51.992;9.228;2023-12-29T08:29:12;6.88;;;1.80;;
21503;SDS011;10913;51.992;9.228;2023-12-29T08:31:38;5.18;;;1.73;;
21503;SDS011;10913;51.992;9.228;2023-12-29T08:34:03;6.75;;;1.65;;
21503;SDS011;10913;51.992;9.228;2023-12-29T08:36:28;5.03;;;1.90;;
21503;SDS011;10913;51.992;9.228;2023-12-29T08:38:54;5.93;;;1.60;;
21503;SDS011;10913;51.992;9.228;2023-12-29T08:41:19;6.53;;;1.60;;
21503;SDS011;10913;51.992;9.228;2023-12-29T08:43:45;8.35;;;1.65;;
21503;SDS011;10913;51.992;9.228;2023-12-29T08:46:10;4.70;;;1.50;;
21503;SDS011;10913;51.992;9.228;2023-12-29T08:48:35;4.43;;;1.80;;
21503;SDS011;10913;51.992;9.228;2023-12-29T08:51:01;7.40;;;1.60;;
21503;SDS011;10913;51.992;9.228;2023-12-29T08:53:26;7.50;;;1.80;;
21503;SDS011;10913;51.992;9.228;2023-12-29T08:55:52;7.15;;;1.45;;
21503;SDS011;10913;51.992;9.228;2023-12-29T08:58:17;5.75;;;1.73;;
21503;SDS011;10913;51.992;9.228;2023-12-29T09:00:43;5.47;;;1.65;;
21503;SDS011;10913;51.992;9.228;2023-12-29T09:03:08;5.80;;;1.90;;
21503;SDS011;10913;51.992;9.228;2023-12-29T09:05:33;5.68;;;1.58;;
21503;SDS011;10913;51.992;9.228;2023-12-29T09:07:59;8.25;;;2.05;;
21503;SDS011;10913;51.992;9.228;2023-12-29T09:10:24;5.50;;;1.60;;
21503;SDS011;10913;51.992;9.228;2023-12-29T09:12:50;5.50;;;1.50;;
21503;SDS011;10913;51.992;9.228;2023-12-29T09:15:15;3.63;;;1.27;;
21503;SDS011;10913;51.992;9.228;2023-12-29T09:17:41;8.02;;;1.70;;
21503;SDS011;10913;51.992;9.228;2023-12-29T09:20:06;4.40;;;1.33;;
21503;SDS011;10913;51.992;9.228;2023-12-29T09:22:33;6.60;;;1.58;;
21503;SDS011;10913;51.992;9.228;2023-12-29T09:24:58;5.97;;;1.50;;
21503;SDS011;10913;51.992;9.228;2023-12-29T09:27:24;5.82;;;1.70;;
21503;SDS011;10913;51.992;9.228;2023-12-29T09:29:55;4.75;;;1.77;;
21503;SDS011;10913;51.992;9.228;2023-12-29T09:32:21;7.00;;;1.55;;
21503;SDS011;10913;51.992;9.228;2023-12-29T09:34:46;7.40;;;1.73;;
21503;SDS011;10913;51.992;9.228;2023-12-29T09:37:11;8.85;;;2.28;;
21503;SDS011;10913;51.992;9.228;2023-12-29T09:39:37;5.43;;;1.70;;
21503;SDS011;10913;51.992;9.228;2023-12-29T09:42:02;4.78;;;1.90;;
21503;SDS011;10913;51.992;9.228;2023-12-29T09:44:29;6.57;;;1.90;;
21503;SDS011;10913;51.992;9.228;2023-12-29T09:46:57;6.03;;;1.60;;
21503;SDS011;10913;51.992;9.228;2023-12-29T09:49:26;6.43;;;1.73;;
21503;SDS011;10913;51.992;9.228;2023-12-29T09:51:56;6.10;;;1.58;;
21503;SDS011;10913;51.992;9.228;2023-12-29T09:54:23;3.92;;;1.27;;
21503;SDS011;10913;51.992;9.228;2023-12-29T09:56:49;3.47;;;1.30;;
21503;SDS011;10913;51.992;9.228;2023-12-29T09:59:16;3.80;;;1.33;;
21503;SDS011;10913;51.992;9.228;2023-12-29T10:01:42;5.88;;;1.35;;
21503;SDS011;10913;51.992;9.228;2023-12-29T10:04:10;3.78;;;1.17;;
21503;SDS011;10913;51.992;9.228;2023-12-29T10:06:36;4.70;;;1.20;;
21503;SDS011;10913;51.992;9.228;2023-12-29T10:09:05;3.08;;;1.27;;
21503;SDS011;10913;51.992;9.228;2023-12-29T10:11:35;3.28;;;1.08;;
21503;SDS011;10913;51.992;9.228;2023-12-29T10:14:03;2.78;;;1.15;;
21503;SDS011;10913;51.992;9.228;2023-12-29T10:16:43;3.58;;;1.27;;
21503;SDS011;10913;51.992;9.228;2023-12-29T10:24:36;3.15;;;1.30;;
21503;SDS011;10913;51.992;9.228;2023-12-29T10:27:01;2.20;;;1.05;;
21503;SDS011;10913;51.992;9.228;2023-12-29T10:29:27;2.28;;;0.90;;
21503;SDS011;10913;51.992;9.228;2023-12-29T10:31:53;1.35;;;1.00;;
21503;SDS011;10913;51.992;9.228;2023-12-29T10:34:19;3.10;;;0.90;;
21503;SDS011;10913;51.992;9.228;2023-12-29T10:36:57;2.63;;;1.10;;
21503;SDS011;10913;51.992;9.228;2023-12-29T10:39:24;1.98;;;0.90;;
21503;SDS011;10913;51.992;9.228;2023-12-29T10:41:50;3.03;;;0.90;;
21503;SDS011;10913;51.992;9.228;2023-12-29T10:44:27;0.77;;;0.77;;
21503;SDS011;10913;51.992;9.228;2023-12-29T10:46:52;2.97;;;0.95;;
21503;SDS011;10913;51.992;9.228;2023-12-29T10:49:17;1.25;;;0.80;;
21503;SDS011;10913;51.992;9.228;2023-12-29T10:51:43;1.52;;;0.73;;
21503;SDS011;10913;51.992;9.228;2023-12-29T10:54:08;1.63;;;0.50;;
21503;SDS011;10913;51.992;9.228;2023-12-29T10:56:47;0.60;;;0.60;;
21503;SDS011;10913;51.992;9.228;2023-12-29T10:59:12;1.60;;;0.70;;
21503;SDS011;10913;51.992;9.228;2023-12-29T11:01:37;1.27;;;0.75;;
21503;SDS011;10913;51.992;9.228;2023-12-29T11:06:39;1.45;;;0.70;;
21503;SDS011;10913;51.992;9.228;2023-12-29T11:09:06;1.17;;;0.68;;
21503;SDS011;10913;51.992;9.228;2023-12-29T11:11:31;1.55;;;0.80;;
21503;SDS011;10913;51.992;9.228;2023-12-29T11:14:01;1.40;;;0.60;;
21503;SDS011;10913;51.992;9.228;2023-12-29T11:16:27;1.25;;;0.70;;
21503;SDS011;10913;51.992;9.228;2023-12-29T11:18:54;0.95;;;0.63;;
21503;SDS011;10913;51.992;9.228;2023-12-29T11:21:21;1.35;;;0.68;;
21503;SDS011;10913;51.992;9.228;2023-12-29T11:23:50;0.65;;;0.52;;
21503;SDS011;10913;51.992;9.228;2023-12-29T11:26:15;1.17;;;0.60;;
21503;SDS011;10913;51.992;9.228;2023-12-29T11:28:42;0.80;;;0.60;;
21503;SDS011;10913;51.992;9.228;2023-12-29T11:31:08;0.60;;;0.57;;
21503;SDS011;10913;51.992;9.228;2023-12-29T11:33:43;2.63;;;0.80;;
21503;SDS011;10913;51.992;9.228;2023-12-29T11:36:25;0.52;;;0.50;;
21503;SDS011;10913;51.992;9.228;2023-12-29T11:39:06;1.60;;;0.65;;
21503;SDS011;10913;51.992;9.228;2023-12-29T11:44:32;0.90;;;0.68;;
21503;SDS011;10913;51.992;9.228;2023-12-29T11:46:58;0.70;;;0.60;;
21503;SDS011;10913;51.992;9.228;2023-12-29T11:49:25;1.27;;;0.90;;
21503;SDS011;10913;51.992;9.228;2023-12-29T11:51:50;0.55;;;0.55;;
21503;SDS011;10913;51.992;9.228;2023-12-29T11:54:23;0.80;;;0.80;;
21503;SDS011;10913;51.992;9.228;2023-12-29T11:56:49;0.63;;;0.63;;
21503;SDS011;10913;51.992;9.228;2023-12-29T11:59:18;0.60;;;0.60;;
21503;SDS011;10913;51.992;9.228;2023-12-29T12:02:19;0.93;;;0.50;;
21503;SDS011;10913;51.992;9.228;2023-12-29T12:04:51;0.45;;;0.45;;
21503;SDS011;10913;51.992;9.228;2023-12-29T12:12:58;0.50;;;0.40;;
21503;SDS011;10913;51.992;9.228;2023-12-29T12:17:59;1.05;;;0.55;;
21503;SDS011;10913;51.992;9.228;2023-12-29T12:20:30;1.40;;;0.60;;
21503;SDS011;10913;51.992;9.228;2023-12-29T12:23:00;0.90;;;0.60;;
21503;SDS011;10913;51.992;9.228;2023-12-29T12:25:26;1.17;;;0.70;;
21503;SDS011;10913;51.992;9.228;2023-12-29T12:27:53;0.93;;;0.50;;
21503;SDS011;10913;51.992;9.228;2023-12-29T12:30:19;1.02;;;0.93;;
21503;SDS011;10913;51.992;9.228;2023-12-29T12:32:44;0.50;;;0.50;;
21503;SDS011;10913;51.992;9.228;2023-12-29T12:35:14;1.23;;;0.50;;
21503;SDS011;10913;51.992;9.228;2023-12-29T12:37:42;1.48;;;1.38;;
21503;SDS011;10913;51.992;9.228;2023-12-29T12:40:08;0.73;;;0.73;;
21503;SDS011;10913;51.992;9.228;2023-12-29T12:42:38;1.40;;;0.82;;
21503;SDS011;10913;51.992;9.228;2023-12-29T12:45:11;0.68;;;0.68;;
21503;SDS011;10913;51.992;9.228;2023-12-29T12:47:45;0.63;;;0.55;;
21503;SDS011;10913;51.992;9.228;2023-12-29T12:50:16;1.08;;;0.60;;
21503;SDS011;10913;51.992;9.228;2023-12-29T12:52:41;1.02;;;0.70;;
21503;SDS011;10913;51.992;9.228;2023-12-29T12:55:07;1.25;;;0.68;;
21503;SDS011;10913;51.992;9.228;2023-12-29T12:57:34;0.98;;;0.60;;
21503;SDS011;10913;51.992;9.228;2023-12-29T13:00:01;0.50;;;0.50;;
21503;SDS011;10913;51.992;9.228;2023-12-29T13:02:28;0.70;;;0.70;;
21503;SDS011;10913;51.992;9.228;2023-12-29T13:04:55;0.50;;;0.50;;
21503;SDS011;10913;51.992;9.228;2023-12-29T13:07:21;0.60;;;0.60;;
21503;SDS011;10913;51.992;9.228;2023-12-29T13:09:47;0.98;;;0.70;;
21503;SDS011;10913;51.992;9.228;2023-12-29T13:12:15;1.70;;;0.70;;
21503;SDS011;10913;51.992;9.228;2023-12-29T13:14:41;1.17;;;0.90;;
21503;SDS011;10913;51.992;9.228;2023-12-29T13:17:13;0.60;;;0.60;;
21503;SDS011;10913;51.992;9.228;2023-12-29T13:19:40;1.25;;;0.77;;
21503;SDS011;10913;51.992;9.228;2023-12-29T13:22:10;0.82;;;0.80;;
21503;SDS011;10913;51.992;9.228;2023-12-29T13:24:46;0.85;;;0.70;;
21503;SDS011;10913;51.992;9.228;2023-12-29T13:27:11;0.95;;;0.80;;
21503;SDS011;10913;51.992;9.228;2023-12-29T13:29:37;0.70;;;0.70;;
21503;SDS011;10913;51.992;9.228;2023-12-29T13:32:37;1.63;;;0.82;;
21503;SDS011;10913;51.992;9.228;2023-12-29T13:37:59;3.30;;;0.90;;
21503;SDS011;10913;51.992;9.228;2023-12-29T13:43:08;0.90;;;0.90;;
21503;SDS011;10913;51.992;9.228;2023-12-29T13:45:36;1.38;;;1.05;;
21503;SDS011;10913;51.992;9.228;2023-12-29T13:48:02;1.85;;;1.10;;
21503;SDS011;10913;51.992;9.228;2023-12-29T13:50:29;2.17;;;1.23;;
21503;SDS011;10913;51.992;9.228;2023-12-29T13:52:54;1.25;;;1.10;;
21503;SDS011;10913;51.992;9.228;2023-12-29T13:55:21;1.80;;;1.20;;
21503;SDS011;10913;51.992;9.228;2023-12-29T13:57:47;2.40;;;1.20;;
21503;SDS011;10913;51.992;9.228;2023-12-29T14:00:17;2.05;;;1.40;;
21503;SDS011;10913;51.992;9.228;2023-12-29T14:02:47;2.38;;;1.10;;
21503;SDS011;10913;51.992;9.228;2023-12-29T14:05:32;1.98;;;1.23;;
21503;SDS011;10913;51.992;9.228;2023-12-29T14:08:02;1.65;;;1.40;;
21503;SDS011;10913;51.992;9.228;2023-12-29T14:10:33;3.55;;;1.50;;
21503;SDS011;10913;51.992;9.228;2023-12-29T14:13:03;2.15;;;1.55;;
21503;SDS011;10913;51.992;9.228;2023-12-29T14:15:34;3.55;;;1.40;;
21503;SDS011;10913;51.992;9.228;2023-12-29T14:18:00;2.13;;;1.60;;
21503;SDS011;10913;51.992;9.228;2023-12-29T14:20:33;2.63;;;1.25;;
21503;SDS011;10913;51.992;9.228;2023-12-29T14:23:03;2.47;;;1.30;;
21503;SDS011;10913;51.992;9.228;2023-12-29T14:25:30;3.20;;;1.60;;
21503;SDS011;10913;51.992;9.228;2023-12-29T14:28:01;3.45;;;1.30;;
21503;SDS011;10913;51.992;9.228;2023-12-29T14:30:27;3.40;;;1.42;;
21503;SDS011;10913;51.992;9.228;2023-12-29T14:32:56;1.92;;;1.23;;
21503;SDS011;10913;51.992;9.228;2023-12-29T14:35:21;2.40;;;1.48;;
21503;SDS011;10913;51.992;9.228;2023-12-29T14:37:47;3.35;;;1.60;;
21503;SDS011;10913;51.992;9.228;2023-12-29T14:40:12;2.97;;;1.40;;
21503;SDS011;10913;51.992;9.228;2023-12-29T14:42:37;2.40;;;1.60;;
21503;SDS011;10913;51.992;9.228;2023-12-29T14:45:05;2.10;;;1.40;;
21503;SDS011;10913;51.992;9.228;2023-12-29T14:47:32;4.55;;;1.40;;
21503;SDS011;10913;51.992;9.228;2023-12-29T14:49:58;2.65;;;1.30;;
21503;SDS011;10913;51.992;9.228;2023-12-29T14:52:24;4.80;;;1.98;;
21503;SDS011;10913;51.992;9.228;2023-12-29T14:54:49;2.83;;;1.25;;
21503;SDS011;10913;51.992;9.228;2023-12-29T14:57:15;2.00;;;1.10;;
21503;SDS011;10913;51.992;9.228;2023-12-29T14:59:40;3.08;;;1.23;;
21503;SDS011;10913;51.992;9.228;2023-12-29T15:02:05;0.80;;;0.80;;
21503;SDS011;10913;51.992;9.228;2023-12-29T15:04:32;1.10;;;1.00;;
21503;SDS011;10913;51.992;9.228;2023-12-29T15:06:58;2.95;;;0.90;;
21503;SDS011;10913;51.992;9.228;2023-12-29T15:09:24;1.73;;;1.10;;
21503;SDS011;10913;51.992;9.228;2023-12-29T15:11:49;3.53;;;1.95;;
21503;SDS011;10913;51.992;9.228;2023-12-29T15:14:17;1.95;;;1.63;;